createdAt,value
2018-08-17T00:01:48.598Z,12.70
2018-08-17T00:04:21.039Z,12.50
2018-08-17T00:06:53.694Z,12.27
2018-08-17T00:09:26.340Z,12.90
2018-08-17T00:11:58.761Z,11.80
2018-08-17T00:14:31.181Z,12.37
2018-08-17T00:17:03.843Z,13.23
2018-08-17T00:19:36.261Z,13.10
2018-08-17T00:22:08.966Z,11.93
2018-08-17T00:24:41.390Z,12.37
2018-08-17T00:27:13.797Z,12.50
2018-08-17T00:29:46.502Z,13.03
2018-08-17T00:32:18.939Z,12.23
2018-08-17T00:34:51.340Z,13.10
2018-08-17T00:37:24.246Z,13.13
2018-08-17T00:39:56.924Z,13.50
2018-08-17T00:42:29.342Z,13.23
2018-08-17T00:45:01.748Z,14.00
2018-08-17T00:47:34.454Z,14.30
2018-08-17T00:50:07.457Z,13.87
2018-08-17T00:52:40.181Z,13.47
2018-08-17T00:55:12.599Z,14.07
2018-08-17T00:57:45.001Z,15.10
2018-08-17T01:00:17.949Z,15.43
2018-08-17T01:02:50.353Z,14.17
2018-08-17T01:05:22.795Z,14.80
2018-08-17T01:07:55.528Z,15.00
2018-08-17T01:10:27.922Z,14.23
2018-08-17T01:13:00.345Z,14.87
2018-08-17T01:15:32.959Z,15.13
2018-08-17T01:18:05.661Z,15.57
2018-08-17T01:20:38.306Z,15.80
2018-08-17T01:23:10.825Z,14.87
2018-08-17T01:25:43.469Z,15.50
2018-08-17T01:28:16.163Z,16.40
2018-08-17T01:30:48.553Z,15.03
2018-08-17T01:33:20.978Z,15.50
2018-08-17T01:35:53.378Z,15.63
2018-08-17T01:38:26.066Z,15.60
2018-08-17T01:40:58.709Z,15.40
2018-08-17T01:43:31.137Z,16.27
2018-08-17T01:46:03.555Z,15.57
2018-08-17T01:48:35.977Z,16.50
2018-08-17T01:51:08.657Z,16.23
2018-08-17T01:53:41.333Z,15.93
2018-08-17T01:56:13.737Z,16.43
2018-08-17T01:58:46.150Z,16.43
2018-08-17T02:01:18.862Z,16.50
2018-08-17T02:03:51.480Z,16.57
2018-08-17T02:06:24.093Z,15.00
2018-08-17T02:08:56.497Z,16.43
2018-08-17T02:11:28.899Z,17.30
2018-08-17T02:14:01.330Z,18.40
2018-08-17T02:16:33.764Z,17.73
2018-08-17T02:19:06.193Z,17.73
2018-08-17T02:21:38.857Z,19.83
2018-08-17T02:24:11.517Z,18.50
2018-08-17T02:26:43.918Z,18.93
2018-08-17T02:29:16.326Z,19.40
2018-08-17T02:31:48.718Z,22.70
2018-08-17T02:34:21.151Z,20.93
2018-08-17T02:36:53.541Z,25.80
2018-08-17T02:39:26.253Z,28.17
2018-08-17T02:41:58.957Z,28.33
2018-08-17T02:44:31.370Z,30.00
2018-08-17T02:47:03.798Z,29.87
2018-08-17T02:49:36.210Z,28.70
2018-08-17T02:52:08.907Z,29.30
2018-08-17T02:54:41.842Z,30.00
2018-08-17T02:57:14.266Z,28.30
2018-08-17T02:59:46.666Z,29.23
2018-08-17T03:02:19.077Z,28.73
2018-08-17T03:04:52.113Z,29.87
2018-08-17T03:07:24.774Z,28.43
2018-08-17T03:09:57.177Z,29.03
2018-08-17T03:12:29.568Z,29.23
2018-08-17T03:15:02.005Z,29.50
2018-08-17T03:17:34.720Z,28.47
2018-08-17T03:20:07.134Z,26.00
2018-08-17T03:22:39.543Z,24.83
2018-08-17T03:25:11.970Z,24.33
2018-08-17T03:27:44.366Z,22.93
2018-08-17T03:30:16.793Z,23.00
2018-08-17T03:32:49.182Z,21.03
2018-08-17T03:35:21.578Z,21.23
2018-08-17T03:37:54.005Z,19.77
2018-08-17T03:40:26.406Z,19.97
2018-08-17T03:42:58.839Z,18.30
2018-08-17T03:45:31.246Z,18.53
2018-08-17T03:48:03.661Z,18.23
2018-08-17T03:50:36.083Z,18.23
2018-08-17T03:53:08.485Z,17.90
2018-08-17T03:55:41.522Z,16.93
2018-08-17T03:58:13.945Z,16.90
2018-08-17T04:00:46.362Z,16.90
2018-08-17T04:03:18.761Z,16.00
2018-08-17T04:05:51.173Z,14.80
2018-08-17T04:08:23.577Z,14.07
2018-08-17T04:10:56.262Z,13.37
2018-08-17T04:13:28.666Z,13.40
2018-08-17T04:16:01.738Z,13.60
2018-08-17T04:18:34.153Z,12.57
2018-08-17T04:21:06.574Z,11.73
2018-08-17T04:23:39.533Z,11.60
2018-08-17T04:26:12.247Z,11.20
2018-08-17T04:28:44.914Z,10.93
2018-08-17T04:31:17.566Z,9.87
2018-08-17T04:33:49.958Z,8.90
2018-08-17T04:36:22.638Z,8.93
2018-08-17T04:38:55.484Z,8.87
2018-08-17T04:41:27.897Z,8.63
2018-08-17T04:44:00.582Z,8.13
2018-08-17T04:46:33.357Z,8.23
2018-08-17T04:49:06.352Z,8.00
2018-08-17T04:51:38.781Z,7.87
2018-08-17T04:54:11.201Z,7.70
2018-08-17T04:56:43.629Z,7.00
2018-08-17T04:59:16.308Z,7.53
2018-08-17T05:01:48.726Z,7.00
2018-08-17T05:04:21.135Z,7.23
2018-08-17T05:06:53.550Z,6.87
2018-08-17T05:09:25.950Z,6.33
2018-08-17T05:11:58.411Z,6.50
2018-08-17T05:14:31.148Z,6.90
2018-08-17T05:17:03.831Z,6.20
2018-08-17T05:19:36.541Z,5.77
2018-08-17T05:22:08.961Z,6.10
2018-08-17T05:24:41.397Z,6.33
2018-08-17T05:27:13.814Z,6.50
2018-08-17T05:29:46.541Z,5.70
2018-08-17T05:32:19.186Z,6.13
2018-08-17T05:34:51.591Z,5.47
2018-08-17T05:37:24.006Z,5.87
2018-08-17T05:39:56.701Z,5.80
2018-08-17T05:42:29.422Z,5.77
2018-08-17T05:45:02.225Z,5.53
2018-08-17T05:47:34.609Z,5.93
2018-08-17T05:50:07.352Z,5.20
2018-08-17T05:52:39.782Z,4.80
2018-08-17T05:55:12.214Z,4.73
2018-08-17T05:57:44.876Z,5.00
2018-08-17T06:00:17.557Z,4.90
2018-08-17T06:02:50.045Z,4.40
2018-08-17T06:05:22.408Z,4.73
2018-08-17T06:07:54.833Z,4.73
2018-08-17T06:10:27.454Z,4.73
2018-08-17T06:13:00.114Z,6.63
2018-08-17T06:15:32.813Z,8.30
2018-08-17T06:18:05.268Z,7.53
2018-08-17T06:20:37.964Z,6.37
2018-08-17T06:23:10.622Z,8.00
2018-08-17T06:25:43.026Z,7.93
2018-08-17T06:28:15.430Z,8.13
2018-08-17T06:30:48.065Z,8.07
2018-08-17T06:33:20.598Z,8.93
2018-08-17T06:35:53.323Z,8.93
2018-08-17T06:38:26.001Z,8.60
2018-08-17T06:40:58.646Z,7.83
2018-08-17T06:43:31.061Z,8.90
2018-08-17T06:46:03.730Z,8.63
2018-08-17T06:48:36.153Z,9.43
2018-08-17T06:51:08.661Z,9.10
2018-08-17T06:53:40.982Z,9.73
2018-08-17T06:56:13.389Z,9.30
2018-08-17T06:58:45.805Z,10.30
2018-08-17T07:01:18.197Z,10.33
2018-08-17T07:03:50.638Z,8.80
2018-08-17T07:06:23.058Z,9.57
2018-08-17T07:08:55.853Z,9.13
2018-08-17T07:11:28.185Z,9.87
2018-08-17T07:14:00.621Z,12.07
2018-08-17T07:16:33.076Z,10.57
2018-08-17T07:19:06.347Z,12.07
2018-08-17T07:21:38.801Z,10.47
2018-08-17T07:24:11.189Z,8.60
2018-08-17T07:26:43.590Z,10.00
2018-08-17T07:29:16.026Z,8.20
2018-08-17T07:31:48.426Z,8.97
2018-08-17T07:34:20.849Z,8.53
2018-08-17T07:36:53.490Z,7.10
2018-08-17T07:39:26.185Z,8.77
2018-08-17T07:41:58.612Z,7.33
2018-08-17T07:44:31.369Z,8.77
2018-08-17T07:47:03.773Z,9.27
2018-08-17T07:49:36.490Z,9.27
2018-08-17T07:52:08.902Z,9.07
2018-08-17T07:54:41.342Z,8.00
2018-08-17T07:57:13.762Z,10.50
2018-08-17T07:59:46.477Z,9.83
2018-08-17T08:02:19.154Z,9.60
2018-08-17T08:04:51.837Z,11.57
2018-08-17T08:07:24.494Z,9.83
2018-08-17T08:09:56.932Z,11.43
2018-08-17T08:12:29.351Z,10.13
2018-08-17T08:15:01.775Z,12.53
2018-08-17T08:17:34.192Z,11.50
2018-08-17T08:20:18.187Z,10.83
2018-08-17T08:23:00.722Z,10.10
2018-08-17T08:25:33.161Z,9.57
2018-08-17T08:28:05.573Z,9.43
2018-08-17T08:30:38.011Z,8.70
2018-08-17T08:33:10.428Z,8.27
2018-08-17T08:35:42.866Z,7.70
2018-08-17T08:38:15.261Z,7.97
2018-08-17T08:40:47.689Z,8.87
2018-08-17T08:43:20.374Z,9.97
2018-08-17T08:45:53.099Z,8.63
2018-08-17T08:48:25.463Z,7.13
2018-08-17T08:50:57.901Z,6.07
2018-08-17T08:53:30.301Z,5.17
2018-08-17T08:56:02.932Z,4.40
2018-08-17T08:58:35.322Z,4.23
2018-08-17T09:01:07.766Z,4.30
2018-08-17T09:03:40.150Z,5.00
2018-08-17T09:06:13.146Z,4.27
2018-08-17T09:08:45.805Z,4.60
2018-08-17T09:11:18.709Z,4.70
2018-08-17T09:13:51.200Z,4.53
2018-08-17T09:16:23.539Z,4.33
2018-08-17T09:18:55.926Z,3.87
2018-08-17T09:21:28.365Z,3.43
2018-08-17T09:24:00.758Z,3.70
2018-08-17T09:26:33.450Z,3.30
2018-08-17T09:29:06.684Z,2.67
2018-08-17T09:31:39.729Z,3.50
2018-08-17T09:34:12.374Z,3.00
2018-08-17T09:36:45.085Z,3.00
2018-08-17T09:39:17.483Z,3.40
2018-08-17T09:41:49.951Z,4.73
2018-08-17T09:44:22.609Z,8.27
2018-08-17T09:46:55.293Z,10.57
2018-08-17T09:49:27.702Z,9.83
2018-08-17T09:52:00.131Z,8.33
2018-08-17T09:54:32.526Z,7.10
2018-08-17T09:57:05.282Z,6.00
2018-08-17T09:59:37.909Z,5.53
2018-08-17T10:02:10.616Z,5.40
2018-08-17T10:04:43.022Z,5.43
2018-08-17T10:07:15.435Z,5.33
2018-08-17T10:09:48.129Z,4.63
2018-08-17T10:12:20.598Z,4.60
2018-08-17T10:14:52.993Z,4.53
2018-08-17T10:17:25.423Z,4.60
2018-08-17T10:19:58.066Z,4.17
2018-08-17T10:22:30.493Z,4.50
2018-08-17T10:25:02.899Z,4.30
2018-08-17T10:27:35.329Z,4.13
2018-08-17T10:30:07.721Z,4.40
2018-08-17T10:32:40.154Z,4.10
2018-08-17T10:35:12.810Z,3.90
2018-08-17T10:37:45.270Z,3.70
2018-08-17T10:40:17.686Z,4.37
2018-08-17T10:42:50.332Z,4.23
2018-08-17T10:45:23.373Z,3.20
2018-08-17T10:47:55.786Z,3.40
2018-08-17T10:50:28.466Z,2.77
2018-08-17T10:53:01.122Z,3.97
2018-08-17T10:55:35.501Z,5.27
2018-08-17T10:58:09.149Z,5.20
2018-08-17T11:00:41.543Z,5.23
2018-08-17T11:03:14.222Z,5.63
2018-08-17T11:05:46.903Z,6.07
2018-08-17T11:08:19.663Z,5.53
2018-08-17T11:10:52.057Z,6.30
2018-08-17T11:13:24.480Z,4.70
2018-08-17T11:15:57.081Z,5.93
2018-08-17T11:18:29.847Z,6.07
2018-08-17T11:21:02.246Z,7.00
2018-08-17T11:23:34.677Z,6.20
2018-08-17T11:26:07.093Z,5.97
2018-08-17T11:28:39.506Z,5.97
2018-08-17T11:31:12.200Z,6.50
2018-08-17T11:33:44.623Z,6.63
2018-08-17T11:36:21.363Z,7.27
2018-08-17T11:38:53.778Z,6.30
2018-08-17T11:41:26.210Z,5.80
2018-08-17T11:43:58.916Z,5.87
2018-08-17T11:46:31.360Z,6.87
2018-08-17T11:49:03.798Z,7.50
2018-08-17T11:51:38.703Z,9.00
2018-08-17T11:54:11.107Z,5.63
2018-08-17T11:56:43.498Z,5.23
2018-08-17T11:59:15.917Z,5.97
2018-08-17T12:01:48.557Z,5.23
2018-08-17T12:04:20.973Z,5.43
2018-08-17T12:06:53.370Z,5.50
2018-08-17T12:09:25.777Z,5.00
2018-08-17T12:11:58.448Z,5.00
2018-08-17T12:14:30.873Z,4.63
2018-08-17T12:17:03.253Z,4.60
2018-08-17T12:19:36.354Z,4.80
2018-08-17T12:22:08.742Z,5.40
2018-08-17T12:24:41.279Z,5.57
2018-08-17T12:27:13.570Z,5.47
2018-08-17T12:29:46.301Z,6.10
2018-08-17T12:32:18.709Z,6.60
2018-08-17T12:34:51.374Z,6.50
2018-08-17T12:37:23.775Z,7.00
2018-08-17T12:39:56.178Z,6.30
2018-08-17T12:42:28.897Z,6.07
2018-08-17T12:45:01.545Z,6.60
2018-08-17T12:47:34.206Z,6.53
2018-08-17T12:50:06.625Z,6.80
2018-08-17T12:52:39.620Z,7.10
2018-08-17T12:55:12.021Z,7.40
2018-08-17T12:57:44.725Z,6.63
2018-08-17T13:00:17.130Z,6.83
2018-08-17T13:02:49.820Z,6.87
2018-08-17T13:05:22.226Z,7.33
2018-08-17T13:07:54.653Z,7.00
2018-08-17T13:10:27.067Z,7.90
2018-08-17T13:12:59.713Z,7.33
2018-08-17T13:15:32.196Z,6.93
2018-08-17T13:18:06.150Z,7.53
2018-08-17T13:20:39.170Z,6.77
2018-08-17T13:23:11.924Z,6.53
2018-08-17T13:25:44.245Z,6.60
2018-08-17T13:28:16.638Z,5.70
2018-08-17T13:30:49.067Z,4.87
2018-08-17T13:33:21.446Z,5.60
2018-08-17T13:35:54.334Z,5.80
2018-08-17T13:38:26.728Z,4.60
2018-08-17T13:40:59.279Z,5.10
2018-08-17T13:43:32.166Z,5.77
2018-08-17T13:46:04.596Z,5.73
2018-08-17T13:48:37.077Z,5.03
2018-08-17T13:51:10.101Z,5.23
2018-08-17T13:53:42.493Z,4.33
2018-08-17T13:56:15.053Z,5.30
2018-08-17T13:58:47.442Z,3.80
2018-08-17T14:01:19.853Z,4.20
2018-08-17T14:03:52.336Z,3.70
2018-08-17T14:06:24.747Z,4.50
2018-08-17T14:08:57.129Z,4.13
2018-08-17T14:11:29.539Z,4.77
2018-08-17T14:14:02.270Z,3.90
2018-08-17T14:16:34.906Z,4.57
2018-08-17T14:19:07.353Z,4.10
2018-08-17T14:21:40.001Z,4.10
2018-08-17T14:24:12.396Z,3.93
2018-08-17T14:26:44.841Z,3.97
2018-08-17T14:29:17.495Z,3.50
2018-08-17T14:31:50.198Z,3.70
2018-08-17T14:34:22.620Z,3.80
2018-08-17T14:36:55.326Z,3.10
2018-08-17T14:39:27.974Z,4.23
2018-08-17T14:42:00.705Z,3.83
2018-08-17T14:44:33.098Z,4.07
2018-08-17T14:47:05.507Z,4.27
2018-08-17T14:49:37.924Z,4.50
2018-08-17T14:52:10.602Z,4.00
2018-08-17T14:54:43.242Z,4.00
2018-08-17T14:57:15.960Z,3.60
2018-08-17T14:59:48.349Z,4.17
2018-08-17T15:02:21.010Z,3.63
2018-08-17T15:04:53.409Z,3.70
2018-08-17T15:07:25.821Z,4.27
2018-08-17T15:09:58.219Z,3.93
2018-08-17T15:12:30.630Z,3.73
2018-08-17T15:15:03.059Z,2.80
2018-08-17T15:17:35.709Z,2.60
2018-08-17T15:20:08.570Z,2.50
2018-08-17T15:22:40.994Z,2.70
2018-08-17T15:25:13.387Z,3.13
2018-08-17T15:27:45.798Z,2.80
2018-08-17T15:30:18.189Z,3.30
2018-08-17T15:32:50.597Z,2.90
2018-08-17T15:35:22.979Z,2.83
2018-08-17T15:37:55.405Z,2.83
2018-08-17T15:40:27.811Z,2.87
2018-08-17T15:43:00.263Z,3.30
2018-08-17T15:45:32.642Z,3.70
2018-08-17T15:48:05.049Z,3.50
2018-08-17T15:50:37.450Z,3.60
2018-08-17T15:53:10.153Z,2.77
2018-08-17T15:55:42.541Z,3.87
2018-08-17T15:58:15.241Z,3.87
2018-08-17T16:00:48.510Z,3.83
2018-08-17T16:03:20.917Z,3.50
2018-08-17T16:05:53.321Z,3.83
2018-08-17T16:08:25.797Z,4.00
2018-08-17T16:10:58.141Z,3.80
2018-08-17T16:13:30.536Z,4.20
2018-08-17T16:16:03.268Z,4.60
2018-08-17T16:18:35.682Z,3.53
2018-08-17T16:21:08.381Z,3.77
2018-08-17T16:23:40.799Z,4.43
2018-08-17T16:26:13.197Z,4.00
2018-08-17T16:28:45.933Z,4.70
2018-08-17T16:31:18.328Z,3.90
2018-08-17T16:33:50.991Z,3.23
2018-08-17T16:36:23.681Z,4.47
2018-08-17T16:38:56.115Z,4.00
2018-08-17T16:41:28.501Z,3.50
2018-08-17T16:44:01.322Z,3.50
2018-08-17T16:46:33.740Z,3.70
2018-08-17T16:49:06.548Z,3.97
2018-08-17T16:51:38.966Z,3.70
2018-08-17T16:54:11.386Z,3.60
2018-08-17T16:56:43.774Z,3.63
2018-08-17T16:59:16.185Z,3.57
2018-08-17T17:01:48.826Z,3.60
2018-08-17T17:04:21.241Z,3.93
2018-08-17T17:06:53.642Z,3.90
2018-08-17T17:09:26.325Z,3.80
2018-08-17T17:11:58.726Z,4.07
2018-08-17T17:14:31.474Z,3.20
2018-08-17T17:17:04.025Z,3.30
2018-08-17T17:19:36.462Z,3.37
2018-08-17T17:22:08.850Z,3.00
2018-08-17T17:24:41.256Z,2.70
2018-08-17T17:27:15.971Z,2.60
2018-08-17T17:29:48.384Z,2.63
2018-08-17T17:32:21.042Z,3.23
2018-08-17T17:34:53.730Z,3.07
2018-08-17T17:37:25.956Z,2.70
2018-08-17T17:39:58.361Z,2.40
2018-08-17T17:42:30.749Z,2.03
2018-08-17T17:45:03.526Z,2.27
2018-08-17T17:47:35.896Z,2.30
2018-08-17T17:50:08.334Z,2.70
2018-08-17T17:52:40.733Z,2.50
2018-08-17T17:55:13.137Z,2.33
2018-08-17T17:57:49.369Z,2.33
2018-08-17T18:00:21.771Z,2.20
2018-08-17T18:02:54.157Z,2.40
2018-08-17T18:05:26.661Z,2.13
2018-08-17T18:07:59.662Z,2.30
2018-08-17T18:10:32.463Z,2.20
2018-08-17T18:13:05.193Z,2.10
2018-08-17T18:15:37.557Z,2.20
2018-08-17T18:18:09.988Z,1.97
2018-08-17T18:20:42.650Z,2.20
2018-08-17T18:23:15.071Z,1.97
2018-08-17T18:25:47.493Z,2.10
2018-08-17T18:28:19.893Z,1.80
2018-08-17T18:30:52.314Z,2.33
2018-08-17T18:33:24.718Z,2.03
2018-08-17T18:35:57.134Z,2.13
2018-08-17T18:38:29.533Z,2.20
2018-08-17T18:41:02.261Z,1.90
2018-08-17T18:43:34.661Z,2.73
2018-08-17T18:46:07.317Z,2.30
2018-08-17T18:48:40.073Z,2.13
2018-08-17T18:51:12.735Z,2.10
2018-08-17T18:53:45.422Z,2.43
2018-08-17T18:56:17.846Z,2.30
2018-08-17T18:58:50.287Z,2.60
2018-08-17T19:01:22.717Z,2.23
2018-08-17T19:03:55.114Z,2.20
2018-08-17T19:06:27.532Z,2.47
2018-08-17T19:08:59.932Z,2.40
2018-08-17T19:11:32.658Z,2.67
2018-08-17T19:14:05.318Z,4.57
2018-08-17T19:16:38.034Z,3.03
2018-08-17T19:19:10.426Z,2.77
2018-08-17T19:21:43.177Z,3.20
2018-08-17T19:24:15.578Z,2.93
2018-08-17T19:26:48.026Z,2.93
2018-08-17T19:29:20.459Z,2.53
2018-08-17T19:31:53.197Z,2.60
2018-08-17T19:34:27.715Z,3.43
2018-08-17T19:37:00.138Z,3.10
2018-08-17T19:39:32.568Z,3.20
2018-08-17T19:42:05.241Z,2.90
2018-08-17T19:44:37.677Z,2.70
2018-08-17T19:47:10.390Z,3.97
2018-08-17T19:49:42.800Z,4.43
2018-08-17T19:52:15.450Z,3.90
2018-08-17T19:54:47.850Z,3.50
2018-08-17T19:57:20.306Z,5.90
2018-08-17T19:59:52.693Z,5.50
2018-08-17T20:02:25.108Z,5.40
2018-08-17T20:04:57.503Z,5.33
2018-08-17T20:07:29.907Z,4.63
2018-08-17T20:10:02.326Z,4.30
2018-08-17T20:12:34.733Z,4.10
2018-08-17T20:15:07.410Z,4.03
2018-08-17T20:17:44.610Z,3.63
2018-08-17T20:20:17.014Z,4.07
2018-08-17T20:22:49.441Z,4.13
2018-08-17T20:25:21.834Z,3.93
2018-08-17T20:27:54.247Z,3.83
2018-08-17T20:30:26.953Z,4.00
2018-08-17T20:32:59.944Z,3.67
2018-08-17T20:35:32.342Z,4.00
2018-08-17T20:38:05.400Z,4.13
2018-08-17T20:40:38.030Z,4.03
2018-08-17T20:43:10.457Z,4.37
2018-08-17T20:45:42.854Z,4.30
2018-08-17T20:48:15.502Z,3.70
2018-08-17T20:50:47.913Z,4.40
2018-08-17T20:53:20.654Z,4.00
2018-08-17T20:55:53.074Z,4.50
2018-08-17T20:58:25.500Z,4.03
2018-08-17T21:00:58.489Z,3.87
2018-08-17T21:03:30.909Z,4.70
2018-08-17T21:06:03.309Z,5.10
2018-08-17T21:08:35.740Z,5.10
2018-08-17T21:11:08.134Z,4.50
2018-08-17T21:13:40.877Z,4.27
2018-08-17T21:16:13.277Z,4.43
2018-08-17T21:18:45.702Z,3.80
2018-08-17T21:21:18.094Z,3.97
2018-08-17T21:23:50.847Z,4.23
2018-08-17T21:26:23.739Z,3.87
2018-08-17T21:28:56.421Z,3.83
2018-08-17T21:31:28.870Z,4.33
2018-08-17T21:34:01.286Z,4.10
2018-08-17T21:36:33.701Z,4.27
2018-08-17T21:39:09.474Z,4.30
2018-08-17T21:41:43.104Z,4.20
2018-08-17T21:44:15.513Z,4.17
2018-08-17T21:46:48.958Z,4.13
2018-08-17T21:49:21.633Z,3.90
2018-08-17T21:51:56.023Z,4.27
2018-08-17T21:54:28.917Z,4.87
2018-08-17T21:57:01.357Z,4.27
2018-08-17T21:59:33.781Z,4.60
2018-08-17T22:02:08.996Z,4.40
2018-08-17T22:04:41.393Z,4.10
2018-08-17T22:07:13.794Z,4.57
2018-08-17T22:09:46.225Z,4.37
2018-08-17T22:12:18.685Z,4.53
2018-08-17T22:14:51.356Z,5.00
2018-08-17T22:17:31.314Z,4.80
2018-08-17T22:20:05.824Z,4.87
2018-08-17T22:22:38.504Z,4.57
2018-08-17T22:25:11.697Z,5.03
2018-08-17T22:27:44.717Z,4.80
2018-08-17T22:30:20.220Z,4.47
2018-08-17T22:32:52.555Z,5.27
2018-08-17T22:35:24.991Z,4.63
2018-08-17T22:37:57.889Z,5.27
2018-08-17T22:40:30.570Z,6.20
2018-08-17T22:43:02.968Z,5.80
2018-08-17T22:45:35.473Z,6.37
2018-08-17T22:48:07.958Z,5.40
2018-08-17T22:50:40.653Z,5.50
2018-08-17T22:53:13.552Z,5.47
2018-08-17T22:55:45.971Z,5.67
2018-08-17T22:58:18.371Z,5.30
2018-08-17T23:00:50.993Z,5.60
2018-08-17T23:03:23.390Z,6.30
2018-08-17T23:05:55.809Z,6.10
2018-08-17T23:08:28.200Z,6.23
2018-08-17T23:11:00.633Z,5.90
2018-08-17T23:13:33.054Z,5.77
2018-08-17T23:16:05.678Z,5.23
2018-08-17T23:18:38.369Z,6.10
2018-08-17T23:21:10.778Z,6.47
2018-08-17T23:23:43.194Z,6.33
2018-08-17T23:26:15.573Z,5.30
2018-08-17T23:28:48.247Z,6.10
2018-08-17T23:31:20.665Z,6.13
2018-08-17T23:33:53.550Z,6.67
2018-08-17T23:36:25.966Z,7.57
2018-08-17T23:38:58.370Z,6.87
2018-08-17T23:41:31.073Z,6.17
2018-08-17T23:44:03.473Z,5.83
2018-08-17T23:46:35.897Z,6.57
2018-08-17T23:49:08.286Z,7.33
2018-08-17T23:51:40.739Z,6.40
2018-08-17T23:54:13.122Z,7.00
2018-08-17T23:56:45.813Z,7.37
2018-08-17T23:59:18.202Z,7.10
